Time;durP1;ratioP1;P1;durP2;ratioP2;P2;SDS_P1;SDS_P2;PMS_P1;PMS_P2;Temp;Humidity;BMP_temperature;BMP_pressure;BME280_temperature;BME280_humidity;BME280_pressure;Samples;Min_cycle;Max_cycle;Signal;HPM_P1;HPM_P2
2022/02/20 04:46:20;;;;;;;18.17;12.35;;;26.20;77.50;;;;;;5081265;28;20427;-51
2022/02/20 04:48:46;;;;;;;18.15;12.50;;;26.70;76.00;;;;;;5081132;28;20029;-49
2022/02/20 04:51:13;;;;;;;21.67;12.80;;;26.70;75.80;;;;;;5081149;28;20320;-48
2022/02/20 04:53:40;;;;;;;18.35;13.43;;;26.80;75.70;;;;;;5080851;28;20021;-47
2022/02/20 04:56:06;;;;;;;23.05;12.52;;;26.80;75.60;;;;;;5080925;28;20032;-54
2022/02/20 04:58:33;;;;;;;20.60;12.88;;;26.80;75.60;;;;;;5080995;28;20024;-47
2022/02/20 05:01:00;;;;;;;19.52;12.38;;;26.80;75.30;;;;;;5080760;28;20039;-49
2022/02/20 05:03:27;;;;;;;18.52;11.82;;;26.90;75.00;;;;;;5080757;28;20059;-52
2022/02/20 05:05:54;;;;;;;19.75;12.43;;;26.90;74.90;;;;;;5080791;28;20017;-51
2022/02/20 05:08:20;;;;;;;20.30;12.23;;;26.90;74.90;;;;;;5080665;28;20012;-50
2022/02/20 05:10:47;;;;;;;18.17;12.10;;;26.90;75.00;;;;;;5080645;28;20036;-52
2022/02/20 05:13:13;;;;;;;17.48;12.27;;;26.90;74.60;;;;;;5080624;28;20251;-53
2022/02/20 05:15:40;;;;;;;16.67;12.00;;;26.90;74.60;;;;;;5081090;28;20021;-55
2022/02/20 05:18:06;;;;;;;17.45;12.00;;;26.90;74.50;;;;;;5080523;28;20033;-55
2022/02/20 05:20:33;;;;;;;15.32;12.35;;;26.90;74.50;;;;;;5080787;28;20029;-53
2022/02/20 05:23:00;;;;;;;16.38;11.90;;;26.90;74.60;;;;;;5080233;28;20021;-52
2022/02/20 05:25:26;;;;;;;19.98;12.13;;;26.90;74.50;;;;;;5080761;28;20103;-55
2022/02/20 05:27:53;;;;;;;19.27;12.85;;;26.90;74.50;;;;;;5080295;28;20217;-60
2022/02/20 05:30:20;;;;;;;17.75;12.32;;;26.90;74.30;;;;;;5080781;28;20207;-58
2022/02/20 05:32:47;;;;;;;16.25;11.98;;;26.90;74.30;;;;;;5080304;28;20040;-52
2022/02/20 05:35:14;;;;;;;18.75;11.82;;;26.90;74.30;;;;;;5080515;28;20044;-53
2022/02/20 05:37:45;;;;;;;21.00;11.55;;;26.90;74.20;;;;;;5080108;28;20012;-53
2022/02/20 05:40:14;;;;;;;18.73;12.52;;;26.90;74.60;;;;;;5080352;28;20078;-52
2022/02/20 05:42:41;;;;;;;19.10;12.23;;;26.90;74.10;;;;;;5079876;28;20216;-58
2022/02/20 05:45:08;;;;;;;19.25;11.65;;;26.90;74.10;;;;;;5078286;28;20318;-50
2022/02/20 05:47:35;;;;;;;18.38;11.65;;;26.90;74.00;;;;;;5066390;28;20062;-57
2022/02/20 05:50:05;;;;;;;14.65;11.50;;;26.90;73.90;;;;;;5066695;28;20029;-61
2022/02/20 05:52:32;;;;;;;17.40;11.60;;;26.90;73.80;;;;;;5066421;28;20028;-52
2022/02/20 05:54:58;;;;;;;15.52;11.20;;;26.90;73.80;;;;;;5066872;28;20035;-57
2022/02/20 05:57:25;;;;;;;17.10;11.25;;;26.90;73.70;;;;;;5066592;28;20032;-50
2022/02/20 05:59:52;;;;;;;15.45;11.68;;;26.90;73.60;;;;;;5066564;28;20052;-50
2022/02/20 12:45:18;;;;;;;11.77;7.80;;;26.50;79.00;;;;;;5018326;28;20351;-60
2022/02/20 12:47:48;;;;;;;15.32;8.52;;;26.50;79.70;;;;;;5036376;28;20037;-52
2022/02/20 12:50:16;;;;;;;16.15;9.10;;;26.50;80.20;;;;;;5043731;28;20037;-52
2022/02/20 12:52:44;;;;;;;16.00;9.13;;;26.50;80.40;;;;;;5023943;28;20072;-52
2022/02/20 13:57:25;;;;;;;14.25;8.88;;;26.30;81.70;;;;;;4959058;28;20070;-42
2022/02/20 13:59:51;;;;;;;18.48;9.88;;;26.30;81.70;;;;;;4968222;29;20058;-40
2022/02/20 14:02:18;;;;;;;227.85;25.65;;;26.30;81.50;;;;;;4948799;29;20253;-38
2022/02/20 14:04:51;;;;;;;65.20;12.98;;;26.30;81.30;;;;;;4948862;29;20047;-38
2022/02/20 14:07:25;;;;;;;33.72;11.57;;;26.30;81.10;;;;;;4948244;29;20075;-42
2022/02/20 14:10:04;;;;;;;31.88;10.27;;;26.30;81.20;;;;;;4948881;29;20043;-40
2022/02/20 14:12:34;;;;;;;33.10;10.40;;;26.30;81.00;;;;;;4948759;29;20019;-39
2022/02/20 14:15:02;;;;;;;26.85;9.70;;;26.30;80.90;;;;;;4948574;29;20058;-40
2022/02/20 14:17:47;;;;;;;21.38;9.63;;;26.30;80.80;;;;;;4948546;29;20067;-44
2022/02/20 14:20:16;;;;;;;23.08;9.55;;;26.40;80.90;;;;;;4948556;29;20083;-41
2022/02/20 14:22:43;;;;;;;24.77;9.52;;;26.40;80.90;;;;;;4948552;29;20016;-40
2022/02/20 14:25:14;;;;;;;18.63;8.52;;;26.40;81.00;;;;;;4948537;29;20242;-39
2022/02/20 14:27:43;;;;;;;19.65;9.10;;;26.40;80.70;;;;;;4948384;29;20031;-40
2022/02/20 14:30:12;;;;;;;13.95;8.32;;;26.40;80.70;;;;;;4948656;29;20363;-46
2022/02/20 14:32:39;;;;;;;15.35;8.85;;;26.40;80.80;;;;;;4948469;29;20035;-42
2022/02/20 14:35:20;;;;;;;53.05;11.23;;;26.40;80.80;;;;;;4948345;29;20050;-44
2022/02/20 14:37:47;;;;;;;24.75;10.07;;;26.40;80.60;;;;;;4948406;29;20035;-42
2022/02/20 14:40:13;;;;;;;29.33;9.20;;;26.50;80.30;;;;;;4948171;29;20031;-41
2022/02/20 14:42:42;;;;;;;18.77;8.82;;;26.50;80.00;;;;;;4948208;29;20032;-44
2022/02/20 14:45:09;;;;;;;15.98;8.60;;;26.40;79.60;;;;;;4948235;29;20035;-41
2022/02/20 14:47:36;;;;;;;21.58;8.90;;;26.50;79.50;;;;;;4950370;29;20022;-41
2022/02/20 14:50:02;;;;;;;43.72;10.23;;;26.50;79.30;;;;;;4965987;29;20187;-44
2022/02/20 14:52:29;;;;;;;28.65;9.60;;;26.50;78.70;;;;;;4967144;29;20035;-40
2022/02/20 14:54:56;;;;;;;24.90;9.13;;;26.50;78.30;;;;;;4967005;29;20027;-41
2022/02/20 14:57:23;;;;;;;15.98;8.40;;;26.60;78.40;;;;;;4966967;29;20234;-40
2022/02/20 14:59:49;;;;;;;19.38;8.93;;;26.60;78.30;;;;;;4967118;29;20035;-47
2022/02/20 15:02:16;;;;;;;18.75;8.15;;;26.60;78.20;;;;;;4967015;29;20023;-45
2022/02/20 15:04:43;;;;;;;20.23;8.65;;;26.60;77.80;;;;;;4967410;29;20043;-47
2022/02/20 15:07:13;;;;;;;15.20;8.18;;;26.60;77.80;;;;;;4966950;29;20031;-44
2022/02/20 15:09:40;;;;;;;19.23;7.90;;;26.60;77.30;;;;;;4966967;29;20027;-45
2022/02/20 15:12:06;;;;;;;14.02;7.47;;;26.60;76.80;;;;;;4965354;29;20263;-52
2022/02/20 15:14:33;;;;;;;13.15;7.57;;;26.60;76.80;;;;;;4965199;29;20322;-48
2022/02/20 15:17:02;;;;;;;12.07;6.97;;;26.70;76.20;;;;;;4966706;29;20215;-50
2022/02/20 15:19:29;;;;;;;12.23;6.78;;;26.70;76.10;;;;;;4965846;28;20039;-49
2022/02/20 15:21:55;;;;;;;14.43;7.18;;;26.70;75.70;;;;;;4966762;29;20055;-51
2022/02/20 15:24:22;;;;;;;17.90;7.53;;;26.70;76.00;;;;;;4966342;29;20027;-51
2022/02/20 15:26:49;;;;;;;17.85;9.60;;;26.70;75.80;;;;;;4966741;29;20031;-48
2022/02/20 15:29:16;;;;;;;22.67;10.63;;;26.70;75.40;;;;;;4966467;29;20046;-56
2022/02/20 15:31:42;;;;;;;21.95;9.55;;;26.70;75.20;;;;;;4966786;29;20089;-50
2022/02/20 15:34:09;;;;;;;17.80;7.70;;;26.70;75.00;;;;;;4966417;29;20310;-52
2022/02/20 15:36:35;;;;;;;17.27;7.50;;;26.80;74.80;;;;;;4966828;29;20102;-51
2022/02/20 15:39:02;;;;;;;15.07;7.13;;;26.80;74.50;;;;;;4966593;29;20097;-50
2022/02/20 15:41:30;;;;;;;15.23;7.15;;;26.80;74.30;;;;;;4966674;29;20027;-48
2022/02/20 15:43:58;;;;;;;12.70;6.53;;;26.80;74.10;;;;;;4966305;29;20035;-48
2022/02/20 15:46:25;;;;;;;11.70;6.20;;;26.90;73.70;;;;;;4966542;29;20094;-52
2022/02/20 15:48:52;;;;;;;13.27;6.30;;;26.90;73.30;;;;;;4966368;29;20023;-53
2022/02/20 15:51:20;;;;;;;12.70;6.07;;;26.90;72.90;;;;;;4966451;29;20035;-49
2022/02/20 15:53:46;;;;;;;14.90;5.93;;;26.90;73.00;;;;;;4965864;29;20019;-50
2022/02/20 15:56:16;;;;;;;16.30;6.30;;;26.90;73.00;;;;;;4966190;29;20062;-49
2022/02/20 15:58:43;;;;;;;18.77;6.15;;;26.90;72.80;;;;;;4966121;29;20034;-49
2022/02/20 16:01:10;;;;;;;18.27;6.30;;;26.90;72.60;;;;;;4966191;29;20019;-51
2022/02/20 16:03:39;;;;;;;13.60;5.43;;;26.90;72.60;;;;;;4966384;29;20027;-51
2022/02/20 16:06:06;;;;;;;18.40;6.10;;;26.90;72.90;;;;;;4966229;29;20039;-50
2022/02/20 16:08:33;;;;;;;22.63;5.75;;;26.90;73.00;;;;;;4965989;29;20090;-50
2022/02/20 16:11:01;;;;;;;43.25;7.60;;;26.90;72.80;;;;;;4965820;29;20215;-51
2022/02/20 16:13:27;;;;;;;24.17;6.40;;;27.00;72.80;;;;;;4965800;29;20343;-51
2022/02/20 16:15:54;;;;;;;14.18;5.28;;;27.00;72.80;;;;;;4965891;29;20050;-56
2022/02/20 16:18:21;;;;;;;19.88;5.28;;;27.00;72.60;;;;;;4965842;29;20027;-49
2022/02/20 16:20:50;;;;;;;17.35;5.70;;;26.90;72.20;;;;;;4966002;29;20210;-53
2022/02/20 16:23:18;;;;;;;14.15;5.30;;;27.00;72.10;;;;;;4965598;29;20019;-50
2022/02/20 16:25:44;;;;;;;17.23;5.07;;;27.00;71.80;;;;;;4948807;29;20031;-49
2022/02/20 16:28:11;;;;;;;15.35;4.80;;;27.00;71.20;;;;;;4965678;29;20035;-51
2022/02/20 16:30:38;;;;;;;27.30;5.55;;;27.00;71.30;;;;;;4965577;28;20027;-52
2022/02/20 16:33:09;;;;;;;19.88;4.47;;;27.00;71.70;;;;;;4965723;29;20015;-49
2022/02/20 16:35:35;;;;;;;20.25;4.32;;;27.00;71.50;;;;;;4965761;29;20075;-38
2022/02/20 16:38:12;;;;;;;33.70;5.22;;;27.00;71.70;;;;;;4965471;29;20023;-43
2022/02/20 16:40:40;;;;;;;18.92;4.38;;;27.00;71.20;;;;;;4965824;29;20034;-40
2022/02/20 16:43:09;;;;;;;17.05;4.45;;;27.10;70.30;;;;;;4965484;29;20019;-47
2022/02/20 16:45:41;;;;;;;32.22;5.28;;;27.00;70.40;;;;;;4965920;29;20266;-43
2022/02/20 16:48:08;;;;;;;23.15;4.25;;;27.10;70.00;;;;;;4948429;29;20042;-56
2022/02/20 16:50:39;;;;;;;19.73;4.38;;;27.10;69.90;;;;;;4965611;29;20039;-48
2022/02/20 16:53:11;;;;;;;16.80;4.35;;;27.10;69.90;;;;;;4965529;29;20127;-42
2022/02/20 16:55:37;;;;;;;;;;;27.10;69.50;;;;;;4965698;29;20038;-49
2022/02/20 16:58:04;;;;;;;9.00;3.35;;;27.10;69.20;;;;;;4965210;29;20212;-50
2022/02/20 17:00:31;;;;;;;12.70;3.83;;;27.10;69.10;;;;;;4965506;29;20058;-50
2022/02/20 17:02:58;;;;;;;11.02;3.80;;;27.10;68.40;;;;;;4965396;29;20267;-48
2022/02/20 17:05:25;;;;;;;8.60;4.00;;;27.20;67.80;;;;;;4965487;29;20036;-54
2022/02/20 17:07:52;;;;;;;8.15;3.58;;;27.20;66.90;;;;;;4965265;29;20037;-51
2022/02/20 17:10:19;;;;;;;13.05;4.10;;;27.30;67.50;;;;;;4965517;29;20307;-51
2022/02/20 17:12:48;;;;;;;31.60;5.97;;;27.30;66.60;;;;;;4965183;29;20115;-54
2022/02/20 17:15:16;;;;;;;73.05;9.10;;;27.30;65.80;;;;;;4965353;29;20030;-51
2022/02/20 17:17:42;;;;;;;65.03;7.90;;;27.30;65.40;;;;;;4965266;29;20031;-49
2022/02/20 17:20:09;;;;;;;59.08;7.43;;;27.40;65.30;;;;;;4965211;29;20036;-49
2022/02/20 17:22:37;;;;;;;36.22;6.53;;;27.40;64.10;;;;;;4965240;29;20018;-50
2022/02/20 17:25:05;;;;;;;22.92;6.28;;;27.50;63.80;;;;;;4965590;29;20333;-48
2022/02/20 17:27:33;;;;;;;24.58;5.85;;;27.50;62.90;;;;;;4965280;29;20246;-53
2022/02/20 17:30:01;;;;;;;19.02;5.78;;;27.50;62.80;;;;;;4965239;29;20051;-49
2022/02/20 17:32:29;;;;;;;19.52;5.85;;;27.60;62.60;;;;;;4965376;29;20223;-49
2022/02/20 17:34:59;;;;;;;13.75;5.30;;;27.60;62.70;;;;;;4965020;29;20310;-52
2022/02/20 17:37:30;;;;;;;15.90;5.50;;;27.70;61.80;;;;;;4965123;29;20050;-49
2022/02/20 17:39:58;;;;;;;9.93;5.47;;;27.70;61.90;;;;;;4965230;29;20191;-51
2022/02/20 17:42:25;;;;;;;14.13;5.40;;;27.70;61.80;;;;;;4966546;28;20072;-50
2022/02/20 17:44:52;;;;;;;12.45;5.28;;;27.80;61.90;;;;;;4968526;29;20027;-47
2022/02/20 17:47:18;;;;;;;10.27;5.20;;;27.80;60.20;;;;;;4968674;29;20038;-51
2022/02/20 17:49:45;;;;;;;13.27;5.25;;;27.80;60.50;;;;;;4967979;29;20081;-41
2022/02/20 17:52:13;;;;;;;12.05;5.28;;;27.80;61.20;;;;;;4968057;29;20034;-39
2022/02/20 17:54:44;;;;;;;12.48;5.28;;;27.80;59.30;;;;;;4968320;29;20106;-41
2022/02/20 17:57:12;;;;;;;10.98;5.32;;;27.80;58.90;;;;;;4968087;29;20050;-44
2022/02/20 17:59:40;;;;;;;85.13;8.55;;;27.80;58.60;;;;;;4968122;29;20030;-42
2022/02/20 18:02:09;;;;;;;29.92;6.05;;;27.90;59.30;;;;;;4967695;29;20035;-49
2022/02/20 18:04:36;;;;;;;13.88;5.95;;;27.80;59.40;;;;;;4967401;29;20019;-45
2022/02/20 18:07:04;;;;;;;16.67;6.15;;;27.90;59.20;;;;;;4968172;29;20042;-40
2022/02/20 18:09:36;;;;;;;14.95;6.60;;;27.90;57.20;;;;;;4951229;29;20027;-39
2022/02/20 18:12:03;;;;;;;12.82;6.10;;;28.00;58.60;;;;;;4967190;29;20247;-39
2022/02/20 18:14:30;;;;;;;13.07;5.45;;;28.00;57.10;;;;;;4950631;29;20223;-38
2022/02/20 18:16:57;;;;;;;15.15;6.00;;;28.10;57.20;;;;;;4950517;29;20023;-40
2022/02/20 18:19:23;;;;;;;12.25;5.88;;;28.10;57.80;;;;;;4967903;29;20032;-42
2022/02/20 18:21:50;;;;;;;14.60;5.97;;;28.10;57.80;;;;;;4967973;29;20076;-40
2022/02/20 18:24:18;;;;;;;13.48;5.63;;;28.20;57.30;;;;;;4950644;29;20023;-42
2022/02/20 18:26:47;;;;;;;16.00;5.72;;;28.20;57.70;;;;;;4967928;29;20031;-40
2022/02/20 18:29:15;;;;;;;13.10;5.43;;;28.30;56.10;;;;;;4967746;29;20075;-40
2022/02/20 18:31:45;;;;;;;8.45;5.13;;;28.40;57.60;;;;;;4967959;29;20218;-40
2022/02/20 18:34:16;;;;;;;11.80;5.38;;;28.30;56.70;;;;;;4967466;29;20078;-51
2022/02/20 18:36:47;;;;;;;10.57;5.17;;;28.30;57.20;;;;;;4966749;29;20034;-41
2022/02/20 18:39:21;;;;;;;12.13;5.25;;;28.40;57.30;;;;;;4967540;29;20098;-43
2022/02/20 18:41:51;;;;;;;10.45;5.90;;;28.40;56.50;;;;;;4967567;29;20084;-38
2022/02/20 18:44:20;;;;;;;11.00;5.45;;;28.40;57.40;;;;;;4967317;29;20055;-41
2022/02/20 18:46:48;;;;;;;13.20;5.80;;;28.40;57.40;;;;;;4967353;29;20102;-40
2022/02/20 18:49:16;;;;;;;10.07;5.53;;;28.40;56.70;;;;;;4967360;29;20318;-39
2022/02/20 18:51:43;;;;;;;10.20;5.60;;;28.40;57.30;;;;;;4967226;29;20066;-39
2022/02/20 18:54:09;;;;;;;8.52;5.47;;;28.40;56.60;;;;;;4967027;28;20029;-39
2022/02/20 18:56:37;;;;;;;8.13;5.70;;;28.40;57.50;;;;;;4967247;29;20051;-38
2022/02/20 18:59:04;;;;;;;14.52;5.60;;;28.50;57.40;;;;;;4966463;29;20039;-41
2022/02/20 19:01:32;;;;;;;11.82;6.30;;;28.50;56.90;;;;;;4967423;29;20026;-43
2022/02/20 19:03:58;;;;;;;12.32;6.32;;;28.60;56.30;;;;;;4966917;29;20446;-41
2022/02/20 19:06:25;;;;;;;23.77;6.40;;;28.60;57.20;;;;;;4966425;29;20354;-38
2022/02/20 19:08:51;;;;;;;16.38;6.70;;;28.60;57.60;;;;;;4966815;29;20050;-43
2022/02/20 19:11:18;;;;;;;9.15;5.47;;;28.60;57.80;;;;;;4967250;28;20047;-43
2022/02/20 19:13:45;;;;;;;20.50;6.28;;;28.60;57.30;;;;;;4949925;29;20257;-42
2022/02/20 19:16:14;;;;;;;26.55;5.72;;;28.60;57.30;;;;;;4949751;29;20037;-45
2022/02/20 19:18:41;;;;;;;12.80;5.85;;;28.60;56.90;;;;;;4966874;29;20027;-39
2022/02/20 19:21:08;;;;;;;13.57;6.70;;;28.70;57.30;;;;;;4966603;29;20358;-43
2022/02/20 19:23:36;;;;;;;27.63;8.68;;;28.60;57.10;;;;;;4966774;29;20027;-38
2022/02/20 19:26:03;;;;;;;23.30;6.82;;;28.60;58.20;;;;;;4966626;29;20034;-43
2022/02/20 19:28:29;;;;;;;15.95;6.10;;;28.60;58.00;;;;;;4966543;29;20023;-46
2022/02/20 19:30:56;;;;;;;14.75;5.65;;;28.70;56.40;;;;;;4966939;29;20027;-38
2022/02/20 19:33:23;;;;;;;15.52;6.57;;;28.70;57.30;;;;;;4966540;29;20338;-40
2022/02/20 19:35:49;;;;;;;18.67;6.45;;;28.70;57.20;;;;;;4966295;29;20027;-47
2022/02/20 19:38:16;;;;;;;12.60;6.28;;;28.80;57.40;;;;;;4966462;29;20090;-38
2022/02/20 19:40:43;;;;;;;16.60;6.55;;;28.80;57.60;;;;;;4966482;29;20027;-41
2022/02/20 19:43:09;;;;;;;15.05;7.22;;;28.90;56.90;;;;;;4966275;29;20085;-37
2022/02/20 19:45:36;;;;;;;10.88;6.90;;;28.90;57.10;;;;;;4966732;29;20043;-37
2022/02/20 19:48:06;;;;;;;11.77;6.50;;;28.90;57.60;;;;;;4966423;29;20027;-39
2022/02/20 19:50:34;;;;;;;19.65;7.00;;;28.90;57.80;;;;;;4966550;29;20027;-38
2022/02/20 19:53:01;;;;;;;11.43;7.20;;;28.80;57.70;;;;;;4966355;29;20086;-37
2022/02/20 19:55:28;;;;;;;12.45;7.10;;;28.80;57.70;;;;;;4966505;29;20338;-37
2022/02/20 19:57:54;;;;;;;18.60;6.95;;;28.90;58.10;;;;;;4966084;29;20228;-44
2022/02/20 20:00:25;;;;;;;16.52;7.35;;;28.80;58.00;;;;;;4966463;29;20077;-41
2022/02/20 20:02:52;;;;;;;13.30;7.00;;;28.80;58.10;;;;;;4966289;29;20043;-38
2022/02/20 20:05:19;;;;;;;14.15;6.88;;;28.80;58.30;;;;;;4965922;28;20035;-38
2022/02/20 20:07:45;;;;;;;24.13;7.50;;;28.90;58.20;;;;;;4966104;29;20031;-41
2022/02/20 20:10:18;;;;;;;16.95;7.07;;;28.80;58.40;;;;;;4966233;29;20319;-37
2022/02/20 20:12:46;;;;;;;18.60;7.43;;;28.80;58.50;;;;;;4965969;29;20046;-39
2022/02/20 20:15:14;;;;;;;16.42;6.88;;;28.80;58.80;;;;;;4949127;29;20315;-44
2022/02/20 20:17:43;;;;;;;19.20;7.10;;;28.80;59.10;;;;;;4965771;29;20307;-40
2022/02/20 20:20:13;;;;;;;21.45;8.63;;;28.80;59.00;;;;;;4966193;29;20074;-47
2022/02/20 20:22:41;;;;;;;13.40;8.23;;;28.80;59.00;;;;;;4965906;29;20019;-40
2022/02/20 20:25:08;;;;;;;14.75;8.20;;;28.80;59.40;;;;;;4965708;29;20046;-44
2022/02/20 20:27:34;;;;;;;13.68;7.93;;;28.80;59.10;;;;;;4965624;29;20023;-42
2022/02/20 20:30:03;;;;;;;24.92;7.45;;;28.80;58.80;;;;;;4965890;29;20042;-39
2022/02/20 20:32:30;;;;;;;19.92;8.15;;;28.80;58.80;;;;;;4966009;29;20102;-45
2022/02/20 20:34:57;;;;;;;25.00;7.88;;;28.80;59.10;;;;;;4965535;29;20047;-43
2022/02/20 20:37:25;;;;;;;29.45;8.57;;;28.80;59.10;;;;;;4965801;29;20054;-39
2022/02/20 20:39:52;;;;;;;28.45;7.80;;;28.80;59.20;;;;;;4965898;29;20110;-44
2022/02/20 20:42:18;;;;;;;22.02;8.18;;;28.80;59.00;;;;;;4948503;29;20098;-40
2022/02/20 20:44:45;;;;;;;19.77;7.40;;;28.80;59.30;;;;;;4965507;29;20043;-41
2022/02/20 20:47:13;;;;;;;93.47;14.57;;;28.90;59.00;;;;;;4965521;29;20082;-42
2022/02/20 20:49:41;;;;;;;184.73;15.60;;;28.90;59.00;;;;;;4965361;29;20136;-45
2022/02/20 20:52:08;;;;;;;218.52;19.70;;;28.90;58.60;;;;;;4965385;29;20102;-40
2022/02/20 20:54:35;;;;;;;93.13;13.25;;;28.90;58.80;;;;;;4965432;29;20274;-44
2022/02/20 20:57:02;;;;;;;39.67;10.00;;;28.90;58.90;;;;;;4965081;28;20274;-38
2022/02/20 20:59:28;;;;;;;37.85;9.13;;;29.00;58.60;;;;;;4965336;29;20062;-45
2022/02/20 21:01:55;;;;;;;33.13;8.93;;;29.00;58.90;;;;;;4965291;29;20033;-44
2022/02/20 21:04:22;;;;;;;32.60;8.20;;;29.00;58.70;;;;;;4965230;29;20023;-38
2022/02/20 21:06:49;;;;;;;17.92;7.68;;;29.00;59.10;;;;;;4965677;29;20034;-38
2022/02/20 21:09:16;;;;;;;47.70;9.85;;;29.00;59.00;;;;;;4965350;29;20255;-40
2022/02/20 21:11:43;;;;;;;43.63;11.18;;;29.00;58.80;;;;;;4965169;29;20075;-45
2022/02/20 21:14:10;;;;;;;23.17;9.38;;;29.10;58.80;;;;;;4965469;29;20031;-41
2022/02/20 21:16:38;;;;;;;21.15;9.55;;;29.10;58.60;;;;;;4966465;28;20035;-44
2022/02/20 21:19:05;;;;;;;22.42;9.18;;;29.10;58.70;;;;;;4968905;29;20023;-44
2022/02/20 21:21:33;;;;;;;15.00;9.10;;;29.10;58.60;;;;;;4969434;29;20038;-40
2022/02/20 21:23:59;;;;;;;15.02;9.23;;;29.10;59.10;;;;;;4969098;29;20034;-42
2022/02/20 21:26:27;;;;;;;16.88;9.50;;;29.00;59.20;;;;;;4969475;29;20252;-43
2022/02/20 21:28:54;;;;;;;21.55;9.65;;;29.00;59.40;;;;;;4968930;29;20035;-40
2022/02/20 21:31:21;;;;;;;31.15;10.18;;;29.00;59.80;;;;;;4969376;29;20031;-40
2022/02/20 21:33:47;;;;;;;24.13;9.98;;;29.00;60.00;;;;;;4968706;29;20031;-42
2022/02/20 21:36:14;;;;;;;28.02;10.88;;;29.00;60.40;;;;;;4969162;29;20027;-40
2022/02/20 21:38:40;;;;;;;19.25;9.48;;;28.90;60.70;;;;;;4968840;29;20027;-44
2022/02/20 21:41:07;;;;;;;19.42;10.48;;;28.90;61.10;;;;;;4968899;29;20023;-42
2022/02/20 21:43:34;;;;;;;32.10;11.18;;;28.90;61.40;;;;;;4968782;29;20035;-41
2022/02/20 21:46:00;;;;;;;29.80;11.40;;;28.90;61.40;;;;;;4969285;29;20039;-46
2022/02/20 21:48:27;;;;;;;19.33;10.57;;;28.90;61.80;;;;;;4968503;29;20307;-43
2022/02/20 21:50:54;;;;;;;25.30;11.73;;;28.90;61.30;;;;;;4968888;29;20035;-41
2022/02/20 21:53:20;;;;;;;32.42;15.32;;;29.00;61.40;;;;;;4968914;29;20023;-41
2022/02/20 21:55:47;;;;;;;35.92;14.25;;;28.90;61.50;;;;;;4968146;29;20219;-43
2022/02/20 21:58:14;;;;;;;41.00;13.57;;;28.90;61.80;;;;;;4968500;29;20062;-47
2022/02/20 22:00:40;;;;;;;35.30;12.63;;;28.90;61.90;;;;;;4968545;29;20307;-40
2022/02/20 22:03:07;;;;;;;27.23;11.15;;;28.90;62.20;;;;;;4951041;29;20077;-43
2022/02/20 22:05:34;;;;;;;31.13;12.45;;;28.90;62.20;;;;;;4968368;29;20042;-41
2022/02/20 22:08:00;;;;;;;29.77;11.10;;;28.90;62.40;;;;;;4968371;29;20027;-44
2022/02/20 22:10:28;;;;;;;35.97;11.52;;;28.90;62.60;;;;;;4968262;29;20075;-46
2022/02/20 22:12:58;;;;;;;37.75;11.43;;;28.90;62.80;;;;;;4968807;29;20061;-47
2022/02/20 22:15:25;;;;;;;56.17;11.13;;;28.90;62.80;;;;;;4967848;29;20042;-49
2022/02/20 22:17:52;;;;;;;57.05;11.32;;;28.90;62.80;;;;;;4967602;29;20215;-44
2022/02/20 22:20:18;;;;;;;98.28;12.18;;;28.90;63.00;;;;;;4942521;29;20043;-45
2022/02/20 22:22:45;;;;;;;114.75;12.93;;;28.90;63.20;;;;;;4959673;29;20184;-38
2022/02/20 22:25:12;;;;;;;154.32;14.93;;;28.90;63.50;;;;;;4949796;29;20216;-43
2022/02/20 22:27:39;;;;;;;85.07;12.57;;;28.90;63.60;;;;;;4931797;29;20028;-40
2022/02/20 22:30:09;;;;;;;61.17;11.07;;;28.90;63.90;;;;;;4948611;29;20024;-41
2022/02/20 22:32:36;;;;;;;64.82;12.70;;;28.80;64.20;;;;;;4947775;29;20027;-46
2022/02/20 22:35:04;;;;;;;40.90;11.52;;;28.80;64.40;;;;;;4948585;29;20047;-39
2022/02/20 22:37:31;;;;;;;41.72;11.68;;;28.80;64.50;;;;;;4948513;29;20054;-39
2022/02/20 22:39:58;;;;;;;40.33;10.30;;;28.80;64.70;;;;;;4947412;29;20062;-48
2022/02/20 22:42:25;;;;;;;45.28;10.95;;;28.80;64.80;;;;;;4948300;29;20322;-45
2022/02/20 22:44:51;;;;;;;44.25;10.93;;;28.80;65.20;;;;;;4948648;29;20095;-47
2022/02/20 22:47:18;;;;;;;46.22;10.50;;;28.80;65.40;;;;;;4947976;29;20098;-48
2022/02/20 22:49:45;;;;;;;42.45;11.00;;;28.80;65.40;;;;;;4947369;29;20083;-48
2022/02/20 22:52:11;;;;;;;33.38;10.82;;;28.70;65.40;;;;;;4948243;29;20193;-43
2022/02/20 22:54:38;;;;;;;41.10;11.20;;;28.80;65.50;;;;;;4948375;29;20367;-40
2022/02/20 22:57:04;;;;;;;29.08;10.27;;;28.70;65.50;;;;;;4948348;29;20050;-39
2022/02/20 22:59:31;;;;;;;38.17;11.35;;;28.70;65.40;;;;;;4948092;29;20087;-41
2022/02/20 23:01:58;;;;;;;83.10;12.80;;;28.70;65.60;;;;;;4948151;29;20032;-40
2022/02/20 23:04:25;;;;;;;47.80;11.70;;;28.70;65.70;;;;;;4947779;29;20035;-42
2022/02/20 23:06:52;;;;;;;49.10;12.57;;;28.70;66.00;;;;;;4948010;29;20049;-45
2022/02/20 23:09:18;;;;;;;76.10;14.05;;;28.70;66.00;;;;;;4947953;29;20074;-41
2022/02/20 23:11:45;;;;;;;64.38;13.15;;;28.70;66.10;;;;;;4948367;29;20043;-41
2022/02/20 23:14:14;;;;;;;141.40;16.88;;;28.70;66.30;;;;;;4948080;29;20193;-42
2022/02/20 23:16:41;;;;;;;87.63;15.05;;;28.70;66.40;;;;;;4948281;29;20372;-42
2022/02/20 23:19:09;;;;;;;65.00;14.05;;;28.70;66.30;;;;;;4930779;29;20024;-41
2022/02/20 23:21:35;;;;;;;38.63;13.02;;;28.70;66.30;;;;;;4931196;29;20032;-40
2022/02/20 23:24:02;;;;;;;54.95;11.85;;;28.60;66.40;;;;;;4947725;29;20027;-46
2022/02/20 23:26:29;;;;;;;69.30;12.60;;;28.60;66.60;;;;;;4948139;29;20027;-41
2022/02/20 23:28:55;;;;;;;48.35;11.55;;;28.60;66.70;;;;;;4947644;29;20335;-40
2022/02/20 23:31:23;;;;;;;66.30;12.32;;;28.60;66.70;;;;;;4947856;29;20087;-40
2022/02/20 23:33:49;;;;;;;102.75;16.23;;;28.60;66.70;;;;;;4947529;29;20347;-51
2022/02/20 23:36:17;;;;;;;67.70;12.38;;;28.60;66.80;;;;;;4947753;29;20055;-42
2022/02/20 23:38:44;;;;;;;61.50;11.60;;;28.60;67.00;;;;;;4947633;29;20086;-47
2022/02/20 23:41:13;;;;;;;55.65;10.95;;;28.60;67.10;;;;;;4946944;29;20099;-48
2022/02/20 23:43:40;;;;;;;41.25;11.32;;;28.60;67.00;;;;;;4947616;29;20039;-41
2022/02/20 23:46:07;;;;;;;46.75;11.65;;;28.50;67.00;;;;;;4948204;29;20341;-39
2022/02/20 23:48:34;;;;;;;39.13;9.95;;;28.60;67.10;;;;;;4930420;29;20039;-41
2022/02/20 23:51:00;;;;;;;35.13;10.13;;;28.50;67.20;;;;;;4947550;29;20027;-41
2022/02/20 23:53:30;;;;;;;33.13;11.02;;;28.50;67.20;;;;;;4947352;29;20031;-46
2022/02/20 23:55:58;;;;;;;90.35;21.27;;;28.50;67.30;;;;;;4947225;29;20091;-44
2022/02/20 23:58:25;;;;;;;100.38;34.35;;;28.50;67.60;;;;;;4947318;29;20309;-39
